createdAt,value
2022-09-17T00:00:20.268Z,0
2022-09-17T00:01:20.139Z,0
2022-09-17T00:02:21.121Z,0
2022-09-17T00:03:21.202Z,0
2022-09-17T00:04:20.352Z,0
2022-09-17T00:05:20.625Z,0
2022-09-17T00:06:20.394Z,0
2022-09-17T00:07:20.146Z,0
2022-09-17T00:08:20.443Z,0
2022-09-17T00:09:20.474Z,0
2022-09-17T00:10:20.468Z,0
2022-09-17T00:11:20.241Z,0
2022-09-17T00:12:20.495Z,0
2022-09-17T00:13:20.532Z,0
2022-09-17T00:14:20.819Z,0
2022-09-17T00:15:20.825Z,0
2022-09-17T00:16:20.777Z,0
2022-09-17T00:17:20.357Z,0
2022-09-17T00:18:20.875Z,0
2022-09-17T00:19:20.911Z,0
2022-09-17T00:20:20.671Z,0
2022-09-17T00:21:20.692Z,0
2022-09-17T00:22:20.695Z,0
2022-09-17T00:23:20.987Z,0
2022-09-17T00:24:20.736Z,0
2022-09-17T00:25:20.503Z,0
2022-09-17T00:26:20.538Z,0
2022-09-17T00:27:20.544Z,0
2022-09-17T00:28:20.972Z,0
2022-09-17T00:29:20.323Z,0
2022-09-17T00:30:20.849Z,0
2022-09-17T00:31:21.273Z,0
2022-09-17T00:32:21.103Z,0
2022-09-17T00:33:21.178Z,0
2022-09-17T00:34:21.446Z,0
2022-09-17T00:35:21.454Z,0
2022-09-17T00:36:20.735Z,0
2022-09-17T00:37:20.733Z,0
2022-09-17T00:38:21.272Z,0
2022-09-17T00:39:21.087Z,0
2022-09-17T00:40:21.577Z,0
2022-09-17T00:41:20.817Z,0
2022-09-17T00:42:21.358Z,0
2022-09-17T00:43:21.372Z,0
2022-09-17T00:44:21.384Z,0
2022-09-17T00:45:20.639Z,0
2022-09-17T00:46:21.691Z,0
2022-09-17T00:47:21.209Z,0
2022-09-17T00:48:21.210Z,0
2022-09-17T00:49:21.496Z,0
2022-09-17T00:50:21.773Z,0
2022-09-17T00:51:21.774Z,0
2022-09-17T00:52:21.031Z,0
2022-09-17T00:53:21.580Z,0
2022-09-17T00:54:21.072Z,0
2022-09-17T00:55:21.093Z,0
2022-09-17T00:56:21.623Z,0
2022-09-17T00:57:21.681Z,0
2022-09-17T00:58:21.654Z,0
2022-09-17T00:59:21.423Z,0
2022-09-17T01:00:21.494Z,0
2022-09-17T01:01:22.141Z,0
2022-09-17T01:02:21.694Z,0
2022-09-17T01:03:21.508Z,0
2022-09-17T01:04:21.528Z,0
2022-09-17T01:05:21.292Z,0
2022-09-17T01:06:21.823Z,0
2022-09-17T01:07:21.820Z,0
2022-09-17T01:08:21.346Z,0
2022-09-17T01:09:21.628Z,0
2022-09-17T01:10:21.891Z,0
2022-09-17T01:11:21.668Z,0
2022-09-17T01:12:21.957Z,0
2022-09-17T01:13:21.702Z,0
2022-09-17T01:14:21.970Z,0
2022-09-17T01:15:21.748Z,0
2022-09-17T01:16:22.337Z,0
2022-09-17T01:17:21.521Z,0
2022-09-17T01:18:21.273Z,0
2022-09-17T01:19:22.071Z,0
2022-09-17T01:20:21.846Z,0
2022-09-17T01:21:22.125Z,0
2022-09-17T01:22:22.121Z,0
2022-09-17T01:23:22.404Z,0
2022-09-17T01:24:22.174Z,0
2022-09-17T01:25:21.948Z,0
2022-09-17T01:26:22.215Z,0
2022-09-17T01:27:21.992Z,0
2022-09-17T01:28:22.198Z,0
2022-09-17T01:29:22.012Z,0
2022-09-17T01:30:22.049Z,0
2022-09-17T01:31:22.455Z,0
2022-09-17T01:32:22.334Z,0
2022-09-17T01:33:22.095Z,0
2022-09-17T01:34:22.118Z,0
2022-09-17T01:35:22.398Z,0
2022-09-17T01:36:22.154Z,0
2022-09-17T01:37:21.912Z,0
2022-09-17T01:38:22.434Z,0
2022-09-17T01:39:22.715Z,0
2022-09-17T01:40:22.703Z,0
2022-09-17T01:41:22.247Z,0
2022-09-17T01:42:22.025Z,0
2022-09-17T01:43:22.357Z,0
2022-09-17T01:44:22.645Z,0
2022-09-17T01:45:22.587Z,0
2022-09-17T01:46:22.833Z,0
2022-09-17T01:47:27.426Z,0
2022-09-17T01:48:22.132Z,0
2022-09-17T01:49:22.658Z,0
2022-09-17T01:50:22.431Z,0
2022-09-17T01:51:22.438Z,0
2022-09-17T01:52:22.722Z,0
2022-09-17T01:53:22.479Z,0
2022-09-17T01:54:23.018Z,0
2022-09-17T01:55:23.060Z,0
2022-09-17T01:56:22.012Z,0
2022-09-17T01:57:22.049Z,0
2022-09-17T01:58:22.317Z,0
2022-09-17T01:59:22.339Z,0
2022-09-17T02:00:22.625Z,0
2022-09-17T02:01:23.210Z,0
2022-09-17T02:02:23.247Z,0
2022-09-17T02:03:22.432Z,0
2022-09-17T02:04:22.713Z,0
2022-09-17T02:05:22.205Z,0
2022-09-17T02:06:22.480Z,0
2022-09-17T02:07:22.496Z,0
2022-09-17T02:08:22.517Z,0
2022-09-17T02:09:22.787Z,0
2022-09-17T02:10:23.071Z,0
2022-09-17T02:11:23.077Z,0
2022-09-17T02:12:22.866Z,0
2022-09-17T02:13:23.031Z,0
2022-09-17T02:14:23.147Z,0
2022-09-17T02:15:22.662Z,0
2022-09-17T02:16:23.531Z,0
2022-09-17T02:17:22.693Z,0
2022-09-17T02:18:22.966Z,0
2022-09-17T02:19:22.977Z,0
2022-09-17T02:20:27.891Z,0
2022-09-17T02:21:23.029Z,0
2022-09-17T02:22:23.309Z,0
2022-09-17T02:23:23.320Z,0
2022-09-17T02:24:23.351Z,0
2022-09-17T02:25:23.103Z,0
2022-09-17T02:26:23.633Z,0
2022-09-17T02:27:23.662Z,0
2022-09-17T02:28:23.566Z,0
2022-09-17T02:29:23.445Z,0
2022-09-17T02:30:23.461Z,0
2022-09-17T02:31:23.542Z,0
2022-09-17T02:32:23.250Z,0
2022-09-17T02:33:23.266Z,0
2022-09-17T02:34:23.570Z,0
2022-09-17T02:35:23.554Z,0
2022-09-17T02:36:23.309Z,0
2022-09-17T02:37:23.588Z,0
2022-09-17T02:38:23.626Z,0
2022-09-17T02:39:23.381Z,0
2022-09-17T02:40:24.119Z,0
2022-09-17T02:41:23.161Z,0
2022-09-17T02:42:23.946Z,0
2022-09-17T02:43:23.704Z,0
2022-09-17T02:44:23.224Z,0
2022-09-17T02:45:23.233Z,0
2022-09-17T02:46:23.741Z,0
2022-09-17T02:47:23.539Z,0
2022-09-17T02:48:23.310Z,0
2022-09-17T02:49:23.326Z,0
2022-09-17T02:50:23.581Z,0
2022-09-17T02:51:23.348Z,0
2022-09-17T02:52:23.630Z,0
2022-09-17T02:53:23.644Z,0
2022-09-17T02:54:23.659Z,0
2022-09-17T02:55:23.693Z,0
2022-09-17T02:56:23.451Z,0
2022-09-17T02:57:23.471Z,0
2022-09-17T02:58:23.736Z,0
2022-09-17T02:59:24.022Z,0
2022-09-17T03:00:23.800Z,0
2022-09-17T03:01:24.349Z,0
2022-09-17T03:02:24.519Z,0
2022-09-17T03:03:24.098Z,0
2022-09-17T03:04:23.854Z,0
2022-09-17T03:05:24.143Z,0
2022-09-17T03:06:24.169Z,0
2022-09-17T03:07:23.923Z,0
2022-09-17T03:08:24.188Z,0
2022-09-17T03:09:24.241Z,0
2022-09-17T03:10:24.238Z,0
2022-09-17T03:11:23.767Z,0
2022-09-17T03:12:24.279Z,0
2022-09-17T03:13:24.303Z,0
2022-09-17T03:14:24.305Z,0
2022-09-17T03:15:24.570Z,0
2022-09-17T03:16:24.273Z,0
2022-09-17T03:17:24.101Z,0
2022-09-17T03:18:24.151Z,0
2022-09-17T03:19:23.900Z,0
2022-09-17T03:20:24.447Z,0
2022-09-17T03:21:24.200Z,0
2022-09-17T03:22:24.467Z,0
2022-09-17T03:23:24.230Z,0
2022-09-17T03:24:24.509Z,0
2022-09-17T03:25:24.276Z,0
2022-09-17T03:26:24.280Z,0
2022-09-17T03:27:24.564Z,0
2022-09-17T03:28:24.872Z,0
2022-09-17T03:29:24.352Z,0
2022-09-17T03:30:24.859Z,0
2022-09-17T03:31:25.194Z,0
2022-09-17T03:32:24.150Z,0
2022-09-17T03:33:24.173Z,0
2022-09-17T03:34:24.451Z,0
2022-09-17T03:35:24.710Z,0
2022-09-17T03:36:24.233Z,0
2022-09-17T03:37:24.764Z,0
2022-09-17T03:38:24.518Z,0
2022-09-17T03:39:24.792Z,0
2022-09-17T03:40:24.528Z,0
2022-09-17T03:41:24.581Z,0
2022-09-17T03:42:24.850Z,0
2022-09-17T03:43:24.895Z,0
2022-09-17T03:44:24.901Z,0
2022-09-17T03:45:24.416Z,0
2022-09-17T03:46:25.253Z,0
2022-09-17T03:47:25.194Z,0
2022-09-17T03:48:24.712Z,0
2022-09-17T03:49:24.471Z,0
2022-09-17T03:50:24.789Z,0
2022-09-17T03:51:24.504Z,0
2022-09-17T03:52:24.784Z,0
2022-09-17T03:53:24.543Z,0
2022-09-17T03:54:24.566Z,0
2022-09-17T03:55:25.104Z,0
2022-09-17T03:56:24.958Z,0
2022-09-17T03:57:24.905Z,0
2022-09-17T03:58:24.899Z,0
2022-09-17T03:59:25.183Z,0
2022-09-17T04:00:24.946Z,0
2022-09-17T04:01:24.711Z,0
2022-09-17T04:02:25.891Z,0
2022-09-17T04:03:25.245Z,0
2022-09-17T04:04:25.466Z,0
2022-09-17T04:05:24.780Z,0
2022-09-17T04:06:25.056Z,0
2022-09-17T04:07:25.332Z,0
2022-09-17T04:08:25.097Z,0
2022-09-17T04:09:25.580Z,0
2022-09-17T04:10:25.391Z,0
2022-09-17T04:11:24.901Z,0
2022-09-17T04:12:24.913Z,0
2022-09-17T04:13:24.948Z,0
2022-09-17T04:14:25.467Z,0
2022-09-17T04:15:24.982Z,0
2022-09-17T04:16:25.691Z,0
2022-09-17T04:17:25.259Z,0
2022-09-17T04:18:25.795Z,0
2022-09-17T04:19:25.816Z,0
2022-09-17T04:20:24.813Z,0
2022-09-17T04:21:25.598Z,0
2022-09-17T04:22:25.103Z,0
2022-09-17T04:23:25.375Z,0
2022-09-17T04:24:25.406Z,0
2022-09-17T04:25:25.171Z,0
2022-09-17T04:26:24.923Z,0
2022-09-17T04:27:25.477Z,0
2022-09-17T04:28:25.937Z,0
2022-09-17T04:29:25.502Z,0
2022-09-17T04:30:25.538Z,0
2022-09-17T04:31:25.788Z,0
2022-09-17T04:32:25.043Z,0
2022-09-17T04:33:25.827Z,0
2022-09-17T04:34:26.114Z,0
2022-09-17T04:35:26.134Z,0
2022-09-17T04:36:25.622Z,0
2022-09-17T04:37:25.651Z,0
2022-09-17T04:38:25.176Z,0
2022-09-17T04:39:25.695Z,0
2022-09-17T04:40:26.017Z,0
2022-09-17T04:41:25.981Z,4
2022-09-17T04:42:25.746Z,0
2022-09-17T04:43:25.764Z,4
2022-09-17T04:44:26.043Z,4
2022-09-17T04:45:26.068Z,0
2022-09-17T04:46:26.139Z,4
2022-09-17T04:47:26.222Z,4
2022-09-17T04:48:25.610Z,4
2022-09-17T04:49:26.157Z,4
2022-09-17T04:50:26.406Z,4
2022-09-17T04:51:26.415Z,8
2022-09-17T04:52:30.956Z,8
2022-09-17T04:53:25.965Z,8
2022-09-17T04:54:26.227Z,8
2022-09-17T04:55:25.993Z,8
2022-09-17T04:56:26.010Z,12
2022-09-17T04:57:26.298Z,12
2022-09-17T04:58:26.049Z,16
2022-09-17T04:59:26.068Z,20
2022-09-17T05:00:25.582Z,20
2022-09-17T05:01:26.204Z,28
2022-09-17T05:02:25.913Z,28
2022-09-17T05:03:26.148Z,32
2022-09-17T05:04:26.159Z,36
2022-09-17T05:05:26.449Z,44
2022-09-17T05:06:26.715Z,48
2022-09-17T05:07:26.723Z,52
2022-09-17T05:08:26.069Z,52
2022-09-17T05:09:26.525Z,52
2022-09-17T05:10:26.306Z,60
2022-09-17T05:11:26.289Z,60
2022-09-17T05:12:26.328Z,60
2022-09-17T05:13:26.598Z,64
2022-09-17T05:14:26.111Z,72
2022-09-17T05:15:26.381Z,80
2022-09-17T05:16:26.931Z,96
2022-09-17T05:17:26.669Z,104
2022-09-17T05:18:26.188Z,108
2022-09-17T05:19:26.191Z,112
2022-09-17T05:20:26.640Z,116
2022-09-17T05:21:26.246Z,128
2022-09-17T05:22:29.169Z,136
2022-09-17T05:23:26.665Z,148
2022-09-17T05:24:26.808Z,152
2022-09-17T05:25:26.615Z,156
2022-09-17T05:26:26.842Z,156
2022-09-17T05:27:26.356Z,164
2022-09-17T05:28:26.829Z,176
2022-09-17T05:29:26.635Z,180
2022-09-17T05:30:26.927Z,184
2022-09-17T05:31:26.954Z,196
2022-09-17T05:32:26.697Z,200
2022-09-17T05:33:26.464Z,208
2022-09-17T05:34:26.749Z,220
2022-09-17T05:35:26.752Z,232
2022-09-17T05:36:27.037Z,244
2022-09-17T05:37:26.281Z,248
2022-09-17T05:38:27.467Z,272
2022-09-17T05:39:27.229Z,292
2022-09-17T05:40:27.352Z,308
2022-09-17T05:41:26.881Z,336
2022-09-17T05:42:26.897Z,352
2022-09-17T05:43:26.663Z,368
2022-09-17T05:44:27.190Z,372
2022-09-17T05:45:26.694Z,356
2022-09-17T05:46:27.612Z,332
2022-09-17T05:47:27.259Z,324
2022-09-17T05:48:26.754Z,320
2022-09-17T05:49:26.773Z,308
2022-09-17T05:50:27.063Z,296
2022-09-17T05:51:26.821Z,296
2022-09-17T05:52:27.096Z,312
2022-09-17T05:53:27.129Z,328
2022-09-17T05:54:27.814Z,336
2022-09-17T05:55:27.013Z,344
2022-09-17T05:56:27.176Z,348
2022-09-17T05:57:26.938Z,360
2022-09-17T05:58:27.473Z,376
2022-09-17T05:59:26.976Z,360
2022-09-17T06:00:27.241Z,352
2022-09-17T06:01:27.661Z,380
2022-09-17T06:02:27.677Z,372
2022-09-17T06:03:27.532Z,312
2022-09-17T06:04:29.617Z,304
2022-09-17T06:05:27.356Z,308
2022-09-17T06:06:27.643Z,312
2022-09-17T06:07:27.638Z,328
2022-09-17T06:08:27.179Z,336
2022-09-17T06:09:27.423Z,336
2022-09-17T06:10:27.842Z,340
2022-09-17T06:11:27.578Z,368
2022-09-17T06:12:27.725Z,400
2022-09-17T06:13:27.793Z,440
2022-09-17T06:14:27.254Z,432
2022-09-17T06:15:27.805Z,452
2022-09-17T06:16:28.147Z,472
2022-09-17T06:17:29.325Z,456
2022-09-17T06:18:27.331Z,468
2022-09-17T06:19:27.625Z,508
2022-09-17T06:20:27.974Z,512
2022-09-17T06:21:27.912Z,576
2022-09-17T06:22:27.672Z,452
2022-09-17T06:23:27.941Z,412
2022-09-17T06:24:27.698Z,400
2022-09-17T06:25:27.720Z,400
2022-09-17T06:26:28.374Z,464
2022-09-17T06:27:27.651Z,544
2022-09-17T06:28:27.769Z,552
2022-09-17T06:29:27.556Z,568
2022-09-17T06:30:28.084Z,560
2022-09-17T06:31:27.911Z,584
2022-09-17T06:32:28.107Z,504
2022-09-17T06:33:28.151Z,512
2022-09-17T06:34:28.164Z,600
2022-09-17T06:35:28.172Z,652
2022-09-17T06:36:27.950Z,516
2022-09-17T06:37:28.258Z,512
2022-09-17T06:38:27.974Z,480
2022-09-17T06:39:28.264Z,492
2022-09-17T06:40:28.848Z,532
2022-09-17T06:41:27.504Z,536
2022-09-17T06:42:28.678Z,556
2022-09-17T06:43:28.450Z,620
2022-09-17T06:44:27.825Z,684
2022-09-17T06:45:27.850Z,644
2022-09-17T06:46:28.190Z,576
2022-09-17T06:47:28.150Z,520
2022-09-17T06:48:28.427Z,524
2022-09-17T06:49:27.915Z,620
2022-09-17T06:50:28.274Z,604
2022-09-17T06:51:28.226Z,632
2022-09-17T06:52:27.992Z,744
2022-09-17T06:53:28.255Z,928
2022-09-17T06:54:28.288Z,1036
2022-09-17T06:55:27.791Z,1004
2022-09-17T06:56:28.313Z,972
2022-09-17T06:57:28.325Z,984
2022-09-17T06:58:29.022Z,1052
2022-09-17T06:59:28.755Z,1096
2022-09-17T07:00:28.407Z,1216
2022-09-17T07:01:29.142Z,1140
2022-09-17T07:02:28.685Z,1088
2022-09-17T07:03:30.464Z,1000
2022-09-17T07:04:28.468Z,900
2022-09-17T07:05:28.498Z,828
2022-09-17T07:06:28.770Z,756
2022-09-17T07:07:28.276Z,868
2022-09-17T07:08:28.560Z,852
2022-09-17T07:09:28.820Z,824
2022-09-17T07:10:28.403Z,904
2022-09-17T07:11:28.360Z,1020
2022-09-17T07:12:28.624Z,1232
2022-09-17T07:13:28.140Z,1584
2022-09-17T07:14:29.279Z,1848
2022-09-17T07:15:28.834Z,1820
2022-09-17T07:16:29.114Z,1612
2022-09-17T07:17:28.214Z,1544
2022-09-17T07:18:29.005Z,1520
2022-09-17T07:19:28.767Z,1560
2022-09-17T07:20:28.899Z,1480
2022-09-17T07:21:28.801Z,1504
2022-09-17T07:22:28.828Z,1488
2022-09-17T07:23:28.852Z,1324
2022-09-17T07:24:34.441Z,1296
2022-09-17T07:25:29.150Z,1300
2022-09-17T07:26:28.401Z,1320
2022-09-17T07:27:29.167Z,1500
2022-09-17T07:28:29.143Z,1740
2022-09-17T07:29:29.220Z,1704
2022-09-17T07:30:29.624Z,1564
2022-09-17T07:31:29.371Z,1396
2022-09-17T07:32:29.012Z,1348
2022-09-17T07:33:28.793Z,1228
2022-09-17T07:34:29.068Z,1180
2022-09-17T07:35:29.334Z,1172
2022-09-17T07:36:28.866Z,1160
2022-09-17T07:37:29.113Z,1188
2022-09-17T07:38:29.143Z,1028
2022-09-17T07:39:29.466Z,948
2022-09-17T07:40:29.515Z,1056
2022-09-17T07:41:28.940Z,1076
2022-09-17T07:42:28.955Z,1108
2022-09-17T07:43:29.550Z,1408
2022-09-17T07:44:29.509Z,1824
2022-09-17T07:45:29.276Z,2028
2022-09-17T07:46:30.314Z,1844
2022-09-17T07:47:29.719Z,1640
2022-09-17T07:48:29.406Z,1600
2022-09-17T07:49:29.350Z,1572
2022-09-17T07:50:29.201Z,1344
2022-09-17T07:51:29.657Z,1016
2022-09-17T07:52:29.396Z,976
2022-09-17T07:53:29.523Z,1048
2022-09-17T07:54:29.436Z,968
2022-09-17T07:55:29.452Z,876
2022-09-17T07:56:29.490Z,720
2022-09-17T07:57:29.000Z,588
2022-09-17T07:58:29.288Z,604
2022-09-17T07:59:29.541Z,712
2022-09-17T08:00:29.624Z,732
2022-09-17T08:01:29.961Z,584
2022-09-17T08:02:32.439Z,636
2022-09-17T08:03:30.009Z,672
2022-09-17T08:04:29.637Z,700
2022-09-17T08:05:29.913Z,700
2022-09-17T08:06:29.422Z,880
2022-09-17T08:07:29.446Z,884
2022-09-17T08:08:29.977Z,792
2022-09-17T08:09:29.728Z,664
2022-09-17T08:10:29.758Z,728
2022-09-17T08:12:01.419Z,1024
2022-09-17T08:12:29.536Z,1216
2022-09-17T08:13:29.816Z,1148
2022-09-17T08:14:36.065Z,1156
2022-09-17T08:15:29.599Z,1048
2022-09-17T08:16:30.370Z,840
2022-09-17T08:17:29.642Z,784
2022-09-17T08:18:30.555Z,956
2022-09-17T08:19:29.821Z,1520
2022-09-17T08:20:29.687Z,1672
2022-09-17T08:21:29.979Z,1728
2022-09-17T08:22:30.246Z,1656
2022-09-17T08:23:30.025Z,1556
2022-09-17T08:24:30.300Z,1712
2022-09-17T08:25:30.385Z,1540
2022-09-17T08:26:30.081Z,1644
2022-09-17T08:27:29.831Z,1104
2022-09-17T08:28:30.617Z,1088
2022-09-17T08:29:35.311Z,1328
2022-09-17T08:30:30.144Z,1104
2022-09-17T08:31:30.327Z,1476
2022-09-17T08:32:29.672Z,1828
2022-09-17T08:33:30.480Z,1164
2022-09-17T08:34:30.851Z,1312
2022-09-17T08:35:30.624Z,2496
2022-09-17T08:36:30.154Z,1588
2022-09-17T08:37:30.283Z,2024
2022-09-17T08:38:32.504Z,1284
2022-09-17T08:39:30.696Z,1644
2022-09-17T08:40:30.659Z,1860
2022-09-17T08:41:30.364Z,1764
2022-09-17T08:42:30.630Z,1312
2022-09-17T08:43:30.673Z,1480
2022-09-17T08:44:30.425Z,2272
2022-09-17T08:45:30.441Z,2436
2022-09-17T08:46:30.750Z,1896
2022-09-17T08:47:30.219Z,1748
2022-09-17T08:48:30.263Z,2592
2022-09-17T08:49:30.787Z,1704
2022-09-17T08:50:30.918Z,1072
2022-09-17T08:51:30.929Z,1216
2022-09-17T08:52:30.581Z,1692
2022-09-17T08:53:30.618Z,1428
2022-09-17T08:54:30.627Z,1708
2022-09-17T08:55:30.629Z,1384
2022-09-17T08:56:31.600Z,1628
2022-09-17T08:57:30.953Z,1508
2022-09-17T08:58:30.702Z,2088
2022-09-17T08:59:30.464Z,1452
2022-09-17T09:00:31.003Z,1320
2022-09-17T09:01:31.076Z,1144
2022-09-17T09:02:30.868Z,1220
2022-09-17T09:03:30.797Z,1320
2022-09-17T09:04:30.565Z,1264
2022-09-17T09:05:30.845Z,1104
2022-09-17T09:06:31.473Z,1048
2022-09-17T09:07:31.062Z,1600
2022-09-17T09:08:30.699Z,2076
2022-09-17T09:09:30.487Z,2516
2022-09-17T09:10:30.680Z,1672
2022-09-17T09:11:30.981Z,1900
2022-09-17T09:12:31.247Z,1776
2022-09-17T09:13:31.001Z,2424
2022-09-17T09:14:30.769Z,2200
2022-09-17T09:15:31.032Z,1784
2022-09-17T09:16:31.351Z,1560
2022-09-17T09:17:31.079Z,1404
2022-09-17T09:18:30.833Z,1544
2022-09-17T09:19:31.236Z,1720
2022-09-17T09:20:31.137Z,1380
2022-09-17T09:21:31.418Z,1296
2022-09-17T09:22:31.795Z,1488
2022-09-17T09:23:31.580Z,2032
2022-09-17T09:24:31.479Z,1664
2022-09-17T09:25:31.238Z,1724
2022-09-17T09:26:31.259Z,2428
2022-09-17T09:27:30.762Z,2704
2022-09-17T09:28:31.494Z,2848
2022-09-17T09:29:31.316Z,2356
2022-09-17T09:30:31.336Z,2368
2022-09-17T09:31:31.120Z,2868
2022-09-17T09:32:31.383Z,3144
2022-09-17T09:33:31.660Z,2648
2022-09-17T09:34:31.413Z,2352
2022-09-17T09:35:31.700Z,1708
2022-09-17T09:36:31.456Z,2304
2022-09-17T09:37:31.219Z,3140
2022-09-17T09:38:32.109Z,2056
2022-09-17T09:39:41.402Z,2044
2022-09-17T09:40:32.086Z,1400
2022-09-17T09:41:31.304Z,1320
2022-09-17T09:42:31.066Z,1804
2022-09-17T09:44:08.291Z,1628
2022-09-17T09:44:31.878Z,1372
2022-09-17T09:45:31.934Z,1336
2022-09-17T09:46:32.047Z,1116
2022-09-17T09:47:31.931Z,1288
2022-09-17T09:48:31.961Z,1352
2022-09-17T09:49:31.577Z,1536
2022-09-17T09:51:08.206Z,1672
2022-09-17T09:51:31.777Z,1772
2022-09-17T09:52:32.026Z,2300
2022-09-17T09:53:31.561Z,2844
2022-09-17T09:54:32.433Z,2088
2022-09-17T09:55:34.232Z,2396
2022-09-17T09:56:31.871Z,2276
2022-09-17T09:57:32.134Z,1412
2022-09-17T09:58:31.898Z,1596
2022-09-17T09:59:32.248Z,2280
2022-09-17T10:00:31.675Z,2392
2022-09-17T10:01:32.733Z,1528
2022-09-17T10:02:32.349Z,1432
2022-09-17T10:03:32.373Z,2288
2022-09-17T10:04:32.271Z,2620
2022-09-17T10:05:32.041Z,2788
2022-09-17T10:06:32.317Z,2464
2022-09-17T10:07:31.824Z,1784
2022-09-17T10:08:31.852Z,1476
2022-09-17T10:09:31.856Z,1612
2022-09-17T10:10:32.789Z,1708
2022-09-17T10:11:32.564Z,2212
2022-09-17T10:12:32.175Z,2404
2022-09-17T10:13:31.941Z,1864
2022-09-17T10:14:32.480Z,1900
2022-09-17T10:15:32.250Z,2524
2022-09-17T10:16:32.491Z,2060
2022-09-17T10:17:32.526Z,1868
2022-09-17T10:18:32.316Z,1568
2022-09-17T10:19:32.442Z,1636
2022-09-17T10:20:32.602Z,1776
2022-09-17T10:21:32.629Z,1540
2022-09-17T10:22:31.867Z,1804
2022-09-17T10:23:31.891Z,1644
2022-09-17T10:24:32.187Z,1552
2022-09-17T10:25:32.178Z,2020
2022-09-17T10:26:32.748Z,1636
2022-09-17T10:27:32.873Z,1944
2022-09-17T10:28:33.012Z,2468
2022-09-17T10:29:32.863Z,2676
2022-09-17T10:30:32.284Z,2640
2022-09-17T10:31:32.837Z,2552
2022-09-17T10:32:32.578Z,2216
2022-09-17T10:33:32.619Z,2188
2022-09-17T10:34:32.903Z,2712
2022-09-17T10:35:32.650Z,2572
2022-09-17T10:36:37.990Z,2680
2022-09-17T10:37:32.181Z,2872
2022-09-17T10:38:32.713Z,2952
2022-09-17T10:39:32.846Z,2608
2022-09-17T10:40:32.836Z,2048
2022-09-17T10:41:32.505Z,1840
2022-09-17T10:42:33.409Z,1932
2022-09-17T10:43:32.931Z,1932
2022-09-17T10:44:32.578Z,2128
2022-09-17T10:45:33.101Z,1868
2022-09-17T10:46:34.557Z,2272
2022-09-17T10:47:32.632Z,2240
2022-09-17T10:48:32.914Z,2284
2022-09-17T10:49:32.671Z,2840
2022-09-17T10:50:33.205Z,2660
2022-09-17T10:51:32.966Z,3284
2022-09-17T10:52:32.751Z,3012
2022-09-17T10:53:32.753Z,2752
2022-09-17T10:54:33.273Z,2020
2022-09-17T10:55:33.322Z,2252
2022-09-17T10:56:33.070Z,3268
2022-09-17T10:57:33.089Z,3808
2022-09-17T10:58:33.488Z,3484
2022-09-17T10:59:33.515Z,2712
2022-09-17T11:00:32.895Z,2984
2022-09-17T11:01:32.936Z,2968
2022-09-17T11:02:34.203Z,2900
2022-09-17T11:03:33.474Z,1640
2022-09-17T11:04:33.500Z,756
2022-09-17T11:05:33.262Z,640
2022-09-17T11:06:33.566Z,684
2022-09-17T11:07:33.575Z,1184
2022-09-17T11:08:33.318Z,1888
2022-09-17T11:09:33.082Z,2024
2022-09-17T11:10:33.374Z,1324
2022-09-17T11:11:33.381Z,1264
2022-09-17T11:12:33.645Z,1392
2022-09-17T11:13:33.682Z,1420
2022-09-17T11:14:33.708Z,1392
2022-09-17T11:15:33.842Z,1192
2022-09-17T11:16:33.767Z,1228
2022-09-17T11:17:33.494Z,1412
2022-09-17T11:18:33.513Z,1584
2022-09-17T11:19:33.554Z,1764
2022-09-17T11:20:33.556Z,1780
2022-09-17T11:21:33.593Z,1956
2022-09-17T11:22:33.853Z,2100
2022-09-17T11:23:33.380Z,3268
2022-09-17T11:24:33.638Z,3736
2022-09-17T11:25:33.919Z,3844
2022-09-17T11:26:33.682Z,2988
2022-09-17T11:27:33.705Z,1896
2022-09-17T11:28:34.164Z,1668
2022-09-17T11:29:34.041Z,1128
2022-09-17T11:30:34.132Z,880
2022-09-17T11:31:34.582Z,892
2022-09-17T11:32:33.815Z,744
2022-09-17T11:33:33.822Z,760
2022-09-17T11:34:34.093Z,908
2022-09-17T11:35:33.871Z,1020
2022-09-17T11:36:33.637Z,1044
2022-09-17T11:37:33.661Z,1128
2022-09-17T11:38:33.942Z,1256
2022-09-17T11:39:33.951Z,1636
2022-09-17T11:40:34.174Z,1956
2022-09-17T11:41:33.990Z,2092
2022-09-17T11:42:34.018Z,1820
2022-09-17T11:43:33.766Z,1856
2022-09-17T11:44:34.300Z,1904
2022-09-17T11:45:33.811Z,2032
2022-09-17T11:46:34.988Z,1360
2022-09-17T11:47:34.494Z,1676
2022-09-17T11:48:34.146Z,1716
2022-09-17T11:49:34.403Z,1504
2022-09-17T11:50:34.169Z,1356
2022-09-17T11:51:34.188Z,1460
2022-09-17T11:52:33.966Z,2020
2022-09-17T11:53:34.484Z,1604
2022-09-17T11:54:34.252Z,1556
2022-09-17T11:55:34.528Z,1456
2022-09-17T11:56:33.777Z,1856
2022-09-17T11:57:34.574Z,2316
2022-09-17T11:58:34.071Z,2400
2022-09-17T11:59:34.374Z,1960
2022-09-17T12:00:34.383Z,1496
2022-09-17T12:01:34.570Z,1084
2022-09-17T12:02:35.408Z,1168
2022-09-17T12:03:34.660Z,864
2022-09-17T12:04:34.464Z,788
2022-09-17T12:05:34.473Z,1144
2022-09-17T12:06:34.765Z,1144
2022-09-17T12:07:34.258Z,1404
2022-09-17T12:08:34.302Z,1192
2022-09-17T12:09:34.561Z,1208
2022-09-17T12:10:34.581Z,1448
2022-09-17T12:11:34.597Z,1612
2022-09-17T12:12:56.168Z,1992
2022-09-17T12:13:34.636Z,1436
2022-09-17T12:14:34.403Z,1076
2022-09-17T12:15:34.928Z,1088
2022-09-17T12:16:35.401Z,1028
2022-09-17T12:17:34.975Z,996
2022-09-17T12:18:39.934Z,880
2022-09-17T12:19:34.628Z,1076
2022-09-17T12:20:34.778Z,2012
2022-09-17T12:21:35.053Z,3512
2022-09-17T12:22:40.322Z,3580
2022-09-17T12:23:34.988Z,3228
2022-09-17T12:24:34.613Z,1832
2022-09-17T12:25:34.372Z,2056
2022-09-17T12:26:34.905Z,2512
2022-09-17T12:27:34.670Z,2064
2022-09-17T12:28:34.991Z,1604
2022-09-17T12:29:34.990Z,1288
2022-09-17T12:30:35.230Z,1120
2022-09-17T12:31:35.542Z,1132
2022-09-17T12:32:35.042Z,1288
2022-09-17T12:33:34.768Z,888
2022-09-17T12:34:35.436Z,860
2022-09-17T12:36:09.722Z,1328
2022-09-17T12:36:35.362Z,1196
2022-09-17T12:37:35.379Z,936
2022-09-17T12:38:34.890Z,1008
2022-09-17T12:39:34.894Z,1420
2022-09-17T12:40:35.300Z,1560
2022-09-17T12:41:35.206Z,1484
2022-09-17T12:42:35.218Z,1376
2022-09-17T12:43:35.246Z,1388
2022-09-17T12:44:35.261Z,1412
2022-09-17T12:45:35.558Z,1480
2022-09-17T12:46:35.810Z,1796
2022-09-17T12:47:35.062Z,2236
2022-09-17T12:48:35.343Z,2160
2022-09-17T12:49:35.362Z,1900
2022-09-17T12:50:36.001Z,1804
2022-09-17T12:51:35.794Z,1940
2022-09-17T12:52:35.414Z,2668
2022-09-17T12:53:35.447Z,2612
2022-09-17T12:54:35.709Z,2032
2022-09-17T12:55:35.224Z,2584
2022-09-17T12:56:35.495Z,3064
2022-09-17T12:57:35.523Z,3556
2022-09-17T12:58:35.285Z,3504
2022-09-17T12:59:35.579Z,3424
2022-09-17T13:00:35.434Z,3528
2022-09-17T13:01:36.024Z,3116
2022-09-17T13:02:35.628Z,2384
2022-09-17T13:03:35.638Z,2380
2022-09-17T13:05:06.273Z,2108
2022-09-17T13:05:41.226Z,1992
2022-09-17T13:06:35.709Z,1920
2022-09-17T13:07:36.112Z,1764
2022-09-17T13:08:35.743Z,1260
2022-09-17T13:09:35.537Z,1120
2022-09-17T13:10:35.529Z,1240
2022-09-17T13:11:35.935Z,1276
2022-09-17T13:12:35.827Z,1372
2022-09-17T13:13:35.864Z,832
2022-09-17T13:14:35.923Z,784
2022-09-17T13:15:35.642Z,756
2022-09-17T13:16:35.852Z,600
2022-09-17T13:17:35.679Z,772
2022-09-17T13:18:36.258Z,1712
2022-09-17T13:19:35.718Z,3424
2022-09-17T13:20:35.740Z,3772
2022-09-17T13:21:36.657Z,3712
2022-09-17T13:22:36.042Z,3028
2022-09-17T13:23:36.439Z,3348
2022-09-17T13:24:36.187Z,3572
2022-09-17T13:25:36.115Z,3484
2022-09-17T13:26:36.119Z,2612
2022-09-17T13:27:35.897Z,3380
2022-09-17T13:28:36.460Z,2596
2022-09-17T13:29:36.433Z,2668
2022-09-17T13:30:36.216Z,3224
2022-09-17T13:31:36.398Z,3544
2022-09-17T13:32:36.244Z,4004
2022-09-17T13:33:36.517Z,3788
2022-09-17T13:34:36.303Z,3812
2022-09-17T13:35:36.585Z,3636
2022-09-17T13:36:36.324Z,2652
2022-09-17T13:37:36.952Z,1668
2022-09-17T13:38:36.623Z,1764
2022-09-17T13:39:36.769Z,1828
2022-09-17T13:40:37.030Z,1776
2022-09-17T13:41:36.429Z,1724
2022-09-17T13:42:36.449Z,1760
2022-09-17T13:43:36.711Z,1844
2022-09-17T13:44:36.487Z,1804
2022-09-17T13:45:36.521Z,1800
2022-09-17T13:46:36.553Z,1872
2022-09-17T13:47:36.551Z,2120
2022-09-17T13:48:36.309Z,2336
2022-09-17T13:49:36.583Z,2756
2022-09-17T13:50:36.601Z,2088
2022-09-17T13:51:36.124Z,1528
2022-09-17T13:52:36.926Z,1480
2022-09-17T13:53:37.307Z,1720
2022-09-17T13:54:36.434Z,1916